createdAt,value
2022-12-26T00:02:15.492Z,100283.31
2022-12-26T00:06:32.313Z,100266.41
2022-12-26T00:10:48.534Z,100262.16
2022-12-26T00:15:05.288Z,100252.16
2022-12-26T00:19:21.550Z,100251.88
2022-12-26T00:23:38.373Z,100250.97
2022-12-26T00:27:54.648Z,100238.06
2022-12-26T00:32:10.944Z,100251.06
2022-12-26T00:36:30.908Z,100256.53
2022-12-26T00:40:47.057Z,100272.16
2022-12-26T00:45:03.646Z,100274.16
2022-12-26T00:49:19.960Z,100263.59
2022-12-26T00:53:36.705Z,100260.66
2022-12-26T00:57:52.914Z,100245.31
2022-12-26T01:02:29.240Z,100243.56
2022-12-26T01:06:45.593Z,100256.41
2022-12-26T01:11:12.835Z,100253.06
2022-12-26T01:15:29.069Z,100268.03
2022-12-26T01:19:45.456Z,100269.53
2022-12-26T01:24:02.153Z,100276.81
2022-12-26T01:28:18.385Z,100267.06
2022-12-26T01:32:34.620Z,100250.19
2022-12-26T01:36:52.232Z,100248.13
2022-12-26T01:41:17.361Z,100238.75
2022-12-26T01:45:33.883Z,100229.84
2022-12-26T01:49:53.087Z,100222.53
2022-12-26T01:54:40.807Z,100210.75
2022-12-26T01:59:12.976Z,100232.66
2022-12-26T02:03:47.766Z,100246.41
2022-12-26T02:08:14.986Z,100237.41
2022-12-26T02:12:38.495Z,100214.50
2022-12-26T02:16:56.194Z,100194.19
2022-12-26T02:21:56.377Z,100189.87
2022-12-26T02:26:31.335Z,100198.34
2022-12-26T02:30:50.650Z,100189.47
2022-12-26T02:35:31.663Z,100204.62
2022-12-26T02:39:56.837Z,100200.00
2022-12-26T02:44:51.237Z,100193.22
2022-12-26T02:49:29.950Z,100210.31
2022-12-26T02:54:55.272Z,100204.31
2022-12-26T02:59:55.537Z,100221.78
2022-12-26T03:04:34.770Z,100231.06
2022-12-26T03:09:29.463Z,100223.44
2022-12-26T03:13:46.209Z,100238.53
2022-12-26T03:18:06.781Z,100249.03
2022-12-26T03:22:32.142Z,100242.72
2022-12-26T03:26:54.272Z,100235.59
2022-12-26T03:31:15.503Z,100234.00
2022-12-26T03:35:34.328Z,100232.19
2022-12-26T03:40:17.995Z,100234.84
2022-12-26T03:45:10.858Z,100247.94
2022-12-26T03:49:49.823Z,100234.38
2022-12-26T03:54:32.306Z,100252.50
2022-12-26T03:59:14.976Z,100261.63
2022-12-26T04:03:52.106Z,100236.59
2022-12-26T04:08:36.029Z,100234.75
2022-12-26T04:13:12.126Z,100250.53
2022-12-26T04:17:50.206Z,100236.13
2022-12-26T04:23:02.395Z,100237.69
2022-12-26T04:27:40.536Z,100233.44
2022-12-26T04:32:27.509Z,100237.22
2022-12-26T04:37:20.657Z,100233.78
2022-12-26T04:41:56.019Z,100225.25
2022-12-26T04:46:12.677Z,100220.37
2022-12-26T04:50:29.053Z,100228.16
2022-12-26T04:54:45.284Z,100223.13
2022-12-26T04:59:01.517Z,100205.53
2022-12-26T05:03:36.463Z,100213.94
2022-12-26T05:08:11.477Z,100213.84
2022-12-26T05:12:27.784Z,100213.87
2022-12-26T05:17:02.454Z,100217.44
2022-12-26T05:21:37.609Z,100219.31
2022-12-26T05:26:12.219Z,100226.22
2022-12-26T05:30:28.817Z,100226.81
2022-12-26T05:34:45.095Z,100239.72
2022-12-26T05:39:02.163Z,100222.81
2022-12-26T05:43:20.059Z,100228.94
2022-12-26T05:47:36.415Z,100234.22
2022-12-26T05:51:52.620Z,100219.00
2022-12-26T05:56:14.905Z,100220.69
2022-12-26T06:00:31.730Z,100227.88
2022-12-26T06:04:47.910Z,100224.75
2022-12-26T06:09:04.141Z,100227.81
2022-12-26T06:13:20.714Z,100228.53
2022-12-26T06:17:37.132Z,100210.41
2022-12-26T06:21:53.448Z,100201.28
2022-12-26T06:26:10.551Z,100201.03
2022-12-26T06:30:26.737Z,100210.03
2022-12-26T06:34:43.081Z,100216.25
2022-12-26T06:39:01.675Z,100217.19
2022-12-26T06:43:18.004Z,100218.19
2022-12-26T06:47:34.295Z,100213.94
2022-12-26T06:51:50.550Z,100220.03
2022-12-26T06:56:15.320Z,100230.41
2022-12-26T07:00:31.728Z,100224.13
2022-12-26T07:04:48.052Z,100238.19
2022-12-26T07:09:10.139Z,100252.28
2022-12-26T07:13:26.498Z,100263.66
2022-12-26T07:17:42.909Z,100252.28
2022-12-26T07:21:59.173Z,100267.81
2022-12-26T07:26:15.459Z,100270.31
2022-12-26T07:30:31.755Z,100262.12
2022-12-26T07:34:47.869Z,100259.22
2022-12-26T07:39:04.463Z,100258.91
2022-12-26T07:43:20.714Z,100260.50
2022-12-26T07:47:37.027Z,100259.91
2022-12-26T07:51:53.504Z,100259.06
2022-12-26T07:56:09.813Z,100251.81
2022-12-26T08:00:26.024Z,100259.66
2022-12-26T08:04:42.324Z,100261.31
2022-12-26T08:08:58.550Z,100272.09
2022-12-26T08:13:15.991Z,100271.09
2022-12-26T08:17:33.133Z,100271.91
2022-12-26T08:21:51.765Z,100272.00
2022-12-26T08:26:10.717Z,100278.31
2022-12-26T08:30:27.108Z,100294.97
2022-12-26T08:34:43.375Z,100281.88
2022-12-26T08:38:59.695Z,100291.44
2022-12-26T08:43:42.170Z,100305.50
2022-12-26T08:47:54.690Z,100291.06
2022-12-26T08:52:10.921Z,100298.06
2022-12-26T08:56:28.905Z,100300.03
2022-12-26T09:00:46.485Z,100299.66
2022-12-26T09:05:05.797Z,100288.31
2022-12-26T09:11:37.476Z,100294.31
2022-12-26T09:15:53.934Z,100294.31
2022-12-26T09:20:10.755Z,100286.47
2022-12-26T09:24:26.985Z,100279.59
2022-12-26T09:28:45.791Z,100293.44
2022-12-26T09:33:04.316Z,100288.37
2022-12-26T09:37:20.644Z,100302.81
2022-12-26T09:41:42.789Z,100305.88
2022-12-26T09:46:13.249Z,100312.31
2022-12-26T09:50:41.004Z,100304.41
2022-12-26T09:55:02.477Z,100308.56
2022-12-26T09:59:21.726Z,100301.31
2022-12-26T10:03:43.526Z,100303.47
2022-12-26T10:08:11.057Z,100303.19
2022-12-26T10:13:01.145Z,100308.13
2022-12-26T10:17:43.222Z,100289.56
2022-12-26T10:22:08.196Z,100272.88
2022-12-26T10:26:29.406Z,100270.16
2022-12-26T10:30:47.100Z,100261.00
2022-12-26T10:35:16.761Z,100250.44
2022-12-26T10:39:48.211Z,100253.03
2022-12-26T10:44:04.675Z,100253.03
2022-12-26T10:48:21.372Z,100236.13
2022-12-26T10:52:40.964Z,100225.19
2022-12-26T10:56:59.273Z,100218.88
2022-12-26T11:01:37.206Z,100212.00
2022-12-26T11:06:10.851Z,100216.41
2022-12-26T11:10:29.215Z,100195.94
2022-12-26T11:14:45.907Z,100198.41
2022-12-26T11:19:02.115Z,100191.72
2022-12-26T11:23:48.183Z,100186.22
2022-12-26T11:28:19.074Z,100152.87
2022-12-26T11:32:35.294Z,100153.75
2022-12-26T11:36:51.715Z,100155.41
2022-12-26T11:41:32.578Z,100143.22
2022-12-26T11:45:51.938Z,100139.72
2022-12-26T11:50:19.309Z,100140.91
2022-12-26T11:54:38.885Z,100138.72
2022-12-26T11:59:13.856Z,100135.16
2022-12-26T12:03:49.659Z,100142.00
2022-12-26T12:08:20.299Z,100138.53
2022-12-26T12:13:02.110Z,100131.19
2022-12-26T12:17:44.170Z,100128.87
2022-12-26T12:22:34.917Z,100137.38
2022-12-26T12:27:06.845Z,100135.75
2022-12-26T12:31:51.915Z,100129.69
2022-12-26T12:36:18.855Z,100127.81
2022-12-26T12:40:41.329Z,100120.66
2022-12-26T12:45:16.046Z,100123.00
2022-12-26T12:49:44.130Z,100122.56
2022-12-26T12:54:09.499Z,100134.88
2022-12-26T12:58:31.235Z,100132.09
2022-12-26T13:03:17.036Z,100131.09
2022-12-26T13:07:45.243Z,100137.62
2022-12-26T13:12:06.556Z,100124.75
2022-12-26T13:16:43.638Z,100143.81
2022-12-26T13:21:08.975Z,100136.78
2022-12-26T13:25:27.566Z,100143.69
2022-12-26T13:29:47.734Z,100152.75
2022-12-26T13:34:07.777Z,100154.69
2022-12-26T13:38:26.194Z,100159.84
2022-12-26T13:43:08.905Z,100153.75
2022-12-26T13:47:51.117Z,100157.09
2022-12-26T13:52:15.834Z,100166.44
2022-12-26T13:56:31.986Z,100163.16
2022-12-26T14:00:48.692Z,100172.37
2022-12-26T14:05:32.381Z,100169.63
2022-12-26T14:10:04.351Z,100177.47
2022-12-26T14:14:57.189Z,100188.81
2022-12-26T14:19:32.151Z,100193.16
2022-12-26T14:24:18.696Z,100182.22
2022-12-26T14:28:43.711Z,100187.88
2022-12-26T14:33:27.033Z,100181.47
2022-12-26T14:38:22.438Z,100182.94
2022-12-26T14:43:10.769Z,100180.13
2022-12-26T14:47:38.903Z,100165.75
2022-12-26T14:51:55.180Z,100171.16
2022-12-26T14:56:36.838Z,100172.09
2022-12-26T15:00:54.339Z,100167.62
2022-12-26T15:05:22.830Z,100164.91
2022-12-26T15:10:15.945Z,100165.38
2022-12-26T15:14:59.881Z,100159.28
2022-12-26T15:19:44.018Z,100157.53
2022-12-26T15:24:26.970Z,100150.72
2022-12-26T15:29:33.339Z,100155.53
2022-12-26T15:34:11.333Z,100152.56
2022-12-26T15:38:42.188Z,100171.12
2022-12-26T15:43:10.227Z,100153.31
2022-12-26T15:47:47.525Z,100165.78
2022-12-26T15:52:08.572Z,100168.56
2022-12-26T15:56:48.964Z,100164.06
2022-12-26T16:01:05.600Z,100167.19
2022-12-26T16:05:31.040Z,100167.09
2022-12-26T16:09:53.226Z,100161.09
2022-12-26T16:14:25.836Z,100164.50
2022-12-26T16:18:41.995Z,100170.50
2022-12-26T16:22:58.298Z,100160.78
2022-12-26T16:27:24.034Z,100158.72
2022-12-26T16:31:40.376Z,100156.84
2022-12-26T16:36:00.981Z,100154.78
2022-12-26T16:40:21.941Z,100156.38
2022-12-26T16:44:40.806Z,100161.72
2022-12-26T16:49:01.486Z,100168.03
2022-12-26T16:53:20.707Z,100166.06
2022-12-26T16:57:36.938Z,100173.38
2022-12-26T17:01:58.444Z,100164.88
2022-12-26T17:06:52.961Z,100173.59
2022-12-26T17:11:09.504Z,100166.69
2022-12-26T17:15:36.429Z,100168.12
2022-12-26T17:19:54.848Z,100174.12
2022-12-26T17:24:25.107Z,100158.25
2022-12-26T17:28:41.332Z,100155.25
2022-12-26T17:33:23.750Z,100144.63
2022-12-26T17:37:40.236Z,100143.28
2022-12-26T17:42:01.791Z,100137.97
2022-12-26T17:46:18.700Z,100131.97
2022-12-26T17:50:43.536Z,100145.75
2022-12-26T17:54:59.954Z,100137.09
2022-12-26T17:59:16.177Z,100124.50
2022-12-26T18:03:32.635Z,100130.94
2022-12-26T18:07:50.948Z,100125.16
2022-12-26T18:12:07.222Z,100120.91
2022-12-26T18:16:28.314Z,100113.84
2022-12-26T18:20:44.485Z,100121.09
2022-12-26T18:25:00.623Z,100097.66
2022-12-26T18:29:16.844Z,100085.66
2022-12-26T18:33:33.005Z,100089.59
2022-12-26T18:37:51.398Z,100071.25
2022-12-26T18:42:11.569Z,100098.19
2022-12-26T18:46:29.889Z,100079.66
2022-12-26T18:50:46.398Z,100073.09
2022-12-26T18:55:02.565Z,100073.78
2022-12-26T18:59:18.723Z,100060.94
2022-12-26T19:03:34.907Z,100078.19
2022-12-26T19:07:51.235Z,100075.81
2022-12-26T19:12:07.498Z,100089.22
2022-12-26T19:16:23.765Z,100088.72
2022-12-26T19:20:44.166Z,100072.75
2022-12-26T19:25:00.570Z,100088.25
2022-12-26T19:29:16.829Z,100100.63
2022-12-26T19:33:32.928Z,100105.25
2022-12-26T19:37:49.057Z,100114.53
2022-12-26T19:42:05.264Z,100113.88
2022-12-26T19:46:21.530Z,100127.38
2022-12-26T19:50:37.806Z,100136.19
2022-12-26T19:54:54.205Z,100136.56
2022-12-26T19:59:10.437Z,100138.63
2022-12-26T20:03:26.670Z,100147.34
2022-12-26T20:07:42.914Z,100130.38
2022-12-26T20:11:59.199Z,100134.25
2022-12-26T20:17:03.013Z,100131.19
2022-12-26T20:21:01.643Z,100102.47
2022-12-26T20:25:18.177Z,100109.53
2022-12-26T20:29:34.403Z,100095.63
2022-12-26T20:33:52.664Z,100111.03
2022-12-26T20:38:09.377Z,100099.25
2022-12-26T20:42:25.927Z,100089.53
2022-12-26T20:46:42.783Z,100112.06
2022-12-26T20:51:00.256Z,100106.25
2022-12-26T20:55:20.145Z,100112.22
2022-12-26T20:59:37.507Z,100114.38
2022-12-26T21:03:55.046Z,100131.63
2022-12-26T21:08:11.286Z,100131.94
2022-12-26T21:12:27.409Z,100133.81
2022-12-26T21:16:46.345Z,100138.44
2022-12-26T21:21:13.684Z,100128.97
2022-12-26T21:25:30.017Z,100125.56
2022-12-26T21:29:46.179Z,100122.22
2022-12-26T21:34:03.518Z,100117.84
2022-12-26T21:38:24.001Z,100104.34
2022-12-26T21:42:40.255Z,100113.81
2022-12-26T21:46:56.405Z,100104.28
2022-12-26T21:51:16.589Z,100109.59
2022-12-26T21:55:36.601Z,100130.28
2022-12-26T21:59:59.491Z,100099.44
2022-12-26T22:04:23.856Z,100100.06
2022-12-26T22:08:40.750Z,100101.72
2022-12-26T22:12:57.006Z,100095.09
2022-12-26T22:17:13.454Z,100101.81
2022-12-26T22:21:29.776Z,100109.84
2022-12-26T22:25:54.997Z,100090.34
2022-12-26T22:30:11.859Z,100103.53
2022-12-26T22:34:28.145Z,100094.06
2022-12-26T22:38:44.207Z,100093.69
2022-12-26T22:43:00.524Z,100105.69
2022-12-26T22:47:16.953Z,100115.22
2022-12-26T22:51:33.140Z,100127.38
2022-12-26T22:55:51.256Z,100129.03
2022-12-26T23:00:11.304Z,100126.97
2022-12-26T23:04:30.828Z,100143.41
2022-12-26T23:08:47.786Z,100146.28
2022-12-26T23:13:04.118Z,100136.59
2022-12-26T23:17:40.485Z,100140.88
2022-12-26T23:21:58.523Z,100156.88
2022-12-26T23:26:14.810Z,100158.41
2022-12-26T23:30:31.814Z,100165.13
2022-12-26T23:34:48.003Z,100170.56
2022-12-26T23:39:04.130Z,100171.78
2022-12-26T23:43:20.822Z,100172.50
2022-12-26T23:47:38.535Z,100176.47
2022-12-26T23:51:54.942Z,100178.63
2022-12-26T23:56:11.446Z,100176.66
